Airfield :
LOGIN :

Register | Disclaimer

   EN    FR    IT 

 










Legend :    VFR   Marginal VFR   IFR   Intensive IFR   Very Intensive IFR
Visi :
Ceiling :
>= 8 km
>= 3000ft
5 to 8 km
1000 to 3000 ft
1500m to 5 km
500 to 1000 ft
800 to 1500m
200 to 500 ft
< 800m
< 200 ft
Symbols :   Thunderstorms  Fog  Heavy snow  Heavy precipitations  Wind > 20 kt
SIGMETs :     Misc.  Thunderstorms  Icing  Turbulence  Mountain Waves  Volcanic Ashes






- Airport Elevation : 249 ft


EGOS - RAF Shawbury

CURRENT METAR :
  • 191050Z 24012KT 8000 -RA SCT008 SCT012 BKN030 10/09 Q1000 RMK GRN

EXPIRED METARs :
  • 190950Z AUTO 24014KT 9999 -RA OVC016/// 10/08 Q1001
  • 190920Z 25016G27KT 9999 SCT018 BKN030 11/08 Q1001 TEMPO 24020G30KT FEW018 BKN030 RMK WHT TEMPO BLU
  • 190850Z 24016KT 9999 SCT016 BKN030 11/08 Q1001 TEMPO 24020G30KT FEW016 BKN030 RMK WHT TEMPO BLU
  • 190820Z 24018KT 9999 BKN015 BKN030 11/09 Q1001 TEMPO 24020G30KT FEW015 BKN030 RMK WHT TEMPO BLU
  • 190750Z AUTO 24019KT 9999 BKN014/// BKN023/// 11/09 Q1001 REUP

TAF TAF EGOS
Valid from the 19 at 09:00 until the 19 at 18:00 UTC


190736Z 1909/1918 24018G28KT 9999 BKN025
TEMPO 1909/1914 -RA BKN020
PROB40
TEMPO 1909/1914 SCT012
PROB30
TEMPO 1909/1914 24022G32KT 6000 RA
TEMPO 1914/1918 6000 RA BKN020
PROB30
TEMPO 1914/1918 SCT012



MET'MAP, your aeronautical weather chart ! - Copyright ORBIFLY December 2007 - Disclaimer

ORBIFLY MET'MAP TEAM :

Programming & Development : Alexandra Zaïnal
Concept & original design : Baudouin d'Aumeries
Assistance for programming : Marc-Olivier Méhu
Technical & hardware support : Manuel Goepfert

Contact : metmap@orbifly.com




SOURCES & CREDITS :

   NOAA